Accueil
METAR-TAF:

METAR-TAF

Aéroports :

Anvers, Belgique

Aéroport d'Anvers

latitude: 51-12N, longitude: 004-28E, altitude: 12 m

Observation

Le bulletin a été fait il y a 38 minutes, à 01:20 UTC
Vent 9 kt de ouest/sud-ouest, variant entre sud/sud-ouest et ouest
Température 16°C
Humidité 77%
Pression 1017 hPa
Visibilité 10 km ou plus

METAR: EBAW 240120Z AUTO 24009KT 210V270 9999 // FEW040/// 16/12 Q1017

Heure: 03:58 (01:58 UTC)

Prévision

Le bulletin a été fait il y a 2 heures et 48 minutes, à 23:10 UTC
Prévision valable du 24 à 00 UTC au 24 à 09 UTC
Vent 9 kt de ouest/sud-ouest
Visibilité 10 km ou plus
Quelques nuages à une hauteur de 3000 ft

TAF: EBAW 232310Z 2400/2409 24009KT 9999 FEW030

Observations et prévisions météorologiques de plus de 4000 aéroports (messages METAR et TAF).

Les stations disponibles sont représentées par des disques jaunes et rouges sur la carte.

Passer la souris dessus pour voir le nom de la station.

Cliquer dessus pour voir les observations et prévisions météorologiques.

Pour changer de carte: cliquez sur les boutons verts avec une croix noire pour zoomer, sur le bouton vert avec un tiret pour effectuer un zoom arrière, ou sur les flèches vertes pour les cartes adjacentes.


METAR-TAF: